Rhonesboro, Texas
Current Conditions -  °F | °C
As of 6:55 AM on Friday 19 Dec 2014 (Local Time) from KJDD Reporting Station
Drizzle Drizzle  
Wind Chill: 43°   Ceiling: 400
Heat Index: 46°   Visibility: 2mi
Dew Point: 46°   Wind: 7mph
Humidity: 100%   Direction: 360°N
Pressure: 30.18"   Gusts: NA
Location:  32.6267°N, 95.0888°W
Report Text: KJDD 191255Z AUTO 36006KT 2SM DZ OVC004 08/08 A3018 RMK AO2 P0001
Loading
Personal Weather Stations






























Interactive Weather Map New forecast layout! Learn more

10-Day Weather Forecast

Advertisements
Track Severe Weather on mobile